CFG2415 CYHZ-EDDF
Flight info
| Callsign | CFG2415 |
|---|---|
| Flight time | N/A |
| Altitude | 39000 |
| Route | IGTAS DCT NOTOP DCT NICSO/M082F400 DCT 48N050W 50N040W 52N030W 54N020W DCT DOGAL DCT BEXET/N0470F390 DCT CON DCT DEXEN UY124 DOLOP DCT KEPAD L15 FINMA DCT CHT DCT ITVIP DCT KONAN UL607 SPI T180 NIVNU T847 IMCOM IMCOM1A |
| Aircraft | A332/H-SDE3GHIJ2J3J5M1RVWXY/LB2D1 |
Departure
| Time | 2026-05-05 11:11 |
|---|---|
| Airport | Halifax / Stanfield International Airport (CYHZ) |
Arrival
| Time | N/A |
|---|---|
| Airport | Frankfurt Main Airport (EDDF) |
| Time | Latitude | Longitude | Altitude | Speed | Heading |
|---|---|---|---|---|---|
| 2026-05-05 10:40 | 44.88912 | -63.51502 | 455 ft | 0 kts | 214° |
| 2026-05-05 11:03 | 44.88916 | -63.51498 | 456 ft | 4 kts | 213° |
| 2026-05-05 11:04 | 44.88939 | -63.51479 | 455 ft | 4 kts | 215° |
| 2026-05-05 11:04 | 44.88952 | -63.51460 | 452 ft | 2 kts | 249° |
| 2026-05-05 11:04 | 44.88962 | -63.51437 | 454 ft | 4 kts | 177° |
| 2026-05-05 11:04 | 44.88974 | -63.51444 | 453 ft | 1 kts | 136° |
| 2026-05-05 11:05 | 44.88963 | -63.51426 | 455 ft | 1 kts | 124° |
| 2026-05-05 11:07 | 44.88959 | -63.51417 | 454 ft | 2 kts | 124° |
| 2026-05-05 11:07 | 44.88940 | -63.51379 | 455 ft | 8 kts | 125° |
| 2026-05-05 11:07 | 44.88887 | -63.51313 | 456 ft | 12 kts | 154° |
| 2026-05-05 11:07 | 44.88791 | -63.51284 | 456 ft | 15 kts | 172° |
| 2026-05-05 11:08 | 44.88696 | -63.51241 | 456 ft | 14 kts | 129° |
| 2026-05-05 11:08 | 44.88700 | -63.51117 | 456 ft | 13 kts | 80° |
| 2026-05-05 11:08 | 44.88719 | -63.50984 | 456 ft | 14 kts | 76° |
| 2026-05-05 11:08 | 44.88776 | -63.50871 | 454 ft | 15 kts | 37° |
| 2026-05-05 11:09 | 44.88875 | -63.50773 | 450 ft | 19 kts | 35° |
| 2026-05-05 11:09 | 44.88982 | -63.50665 | 449 ft | 14 kts | 38° |
| 2026-05-05 11:09 | 44.88996 | -63.50580 | 449 ft | 9 kts | 109° |
| 2026-05-05 11:09 | 44.88960 | -63.50499 | 449 ft | 10 kts | 123° |
| 2026-05-05 11:10 | 44.88913 | -63.50434 | 451 ft | 7 kts | 165° |
| 2026-05-05 11:10 | 44.88869 | -63.50453 | 454 ft | 10 kts | 210° |
| 2026-05-05 11:10 | 44.88722 | -63.50597 | 458 ft | 52 kts | 215° |
| 2026-05-05 11:10 | 44.88263 | -63.51049 | 459 ft | 108 kts | 215° |
| 2026-05-05 11:11 | 44.87514 | -63.51788 | 504 ft | 152 kts | 215° |
| 2026-05-05 11:11 | 44.86656 | -63.52672 | 1067 ft | 157 kts | 218° |
| 2026-05-05 11:11 | 44.85796 | -63.53610 | 1857 ft | 159 kts | 224° |
| 2026-05-05 11:11 | 44.84886 | -63.54586 | 2270 ft | 170 kts | 224° |
| 2026-05-05 11:12 | 44.83700 | -63.55169 | 2608 ft | 204 kts | 188° |
| 2026-05-05 11:12 | 44.82310 | -63.54229 | 2954 ft | 248 kts | 143° |
| 2026-05-05 11:12 | 44.81117 | -63.52299 | 3178 ft | 274 kts | 136° |
| 2026-05-05 11:12 | 44.80106 | -63.49882 | 3399 ft | 302 kts | 112° |
| 2026-05-05 11:13 | 44.79966 | -63.46890 | 3818 ft | 314 kts | 77° |
| 2026-05-05 11:13 | 44.80788 | -63.44094 | 4562 ft | 306 kts | 56° |
| 2026-05-05 11:13 | 44.82021 | -63.41680 | 5267 ft | 302 kts | 46° |
| 2026-05-05 11:13 | 44.83408 | -63.39449 | 5889 ft | 303 kts | 43° |
| 2026-05-05 11:14 | 44.84909 | -63.37124 | 6518 ft | 305 kts | 43° |
| 2026-05-05 11:14 | 44.90241 | -63.27849 | 9304 ft | 304 kts | 49° |
| 2026-05-05 11:14 | 44.94687 | -63.19415 | 10853 ft | 327 kts | 49° |
| 2026-05-05 11:14 | 45.11766 | -62.85872 | 16757 ft | 367 kts | 54° |
| 2026-05-05 11:15 | 45.21654 | -62.59850 | 19914 ft | 389 kts | 53° |
| 2026-05-05 11:15 | 45.32908 | -62.32380 | 22704 ft | 411 kts | 54° |
| 2026-05-05 11:15 | 45.48273 | -61.93108 | 26055 ft | 432 kts | 58° |
| 2026-05-05 11:15 | 45.53728 | -61.58301 | 28592 ft | 448 kts | 67° |
| 2026-05-05 11:16 | 45.63866 | -61.39164 | 28855 ft | 407 kts | 27° |
| 2026-05-05 11:16 | 45.69827 | -61.29626 | 29280 ft | 441 kts | 50° |
| 2026-05-05 11:16 | 45.76160 | -61.03910 | 30337 ft | 454 kts | 62° |
| 2026-05-05 11:16 | 45.83948 | -60.72569 | 31797 ft | 491 kts | 78° |
| 2026-05-05 11:17 | 45.87860 | -60.33837 | 33902 ft | 494 kts | 72° |
| 2026-05-05 11:17 | 45.94502 | -59.94933 | 35468 ft | 507 kts | 72° |
| 2026-05-05 11:17 | 46.01957 | -59.55883 | 37355 ft | 506 kts | 72° |
| 2026-05-05 11:17 | 46.10072 | -59.16863 | 38791 ft | 509 kts | 72° |
| 2026-05-05 11:18 | 46.18420 | -58.78112 | 38961 ft | 527 kts | 64° |
| 2026-05-05 11:18 | 46.23449 | -58.60454 | 38962 ft | 520 kts | 74° |
| 2026-05-05 11:19 | 46.42497 | -57.71444 | 38956 ft | 522 kts | 72° |
| 2026-05-05 11:19 | 46.59463 | -56.92075 | 38947 ft | 524 kts | 72° |
| 2026-05-05 11:20 | 46.61549 | -56.82087 | 38935 ft | 524 kts | 72° |
| 2026-05-05 11:20 | 46.63653 | -56.71939 | 38938 ft | 524 kts | 72° |
| 2026-05-05 11:21 | 46.65482 | -56.63069 | 38922 ft | 524 kts | 72° |